Time;durP1;ratioP1;P1;durP2;ratioP2;P2;SDS_P1;SDS_P2;PMS_P1;PMS_P2;Temp;Humidity;BMP_temperature;BMP_pressure;BME280_temperature;BME280_humidity;BME280_pressure;Samples;Min_cycle;Max_cycle;Signal;HPM_P1;HPM_P2
2023/09/01 00:02:13;;;;;;;5.80;5.28;;;14.50;99.90;;;15.13;100.00;97789.13;10306396;28;20238;-79
2023/09/01 00:07:16;;;;;;;8.63;5.78;;;14.50;99.90;;;15.16;100.00;97773.78;10313016;28;20218;-78
2023/09/01 00:12:19;;;;;;;5.68;5.05;;;14.50;99.90;;;15.17;100.00;97770.41;10310009;28;20223;-79
2023/09/01 00:17:24;;;;;;;6.28;5.25;;;14.50;99.90;;;15.07;100.00;97774.31;10308883;28;20231;-80
2023/09/01 00:22:27;;;;;;;5.82;5.32;;;14.40;99.90;;;15.06;100.00;97766.56;10311531;28;20304;-79
2023/09/01 00:27:30;;;;;;;6.40;4.78;;;14.50;99.90;;;15.05;100.00;97759.63;10310969;28;20255;-80
2023/09/01 00:32:35;;;;;;;5.20;4.63;;;14.40;99.90;;;14.90;100.00;97748.75;10309613;28;20219;-79
2023/09/01 00:37:38;;;;;;;5.93;5.40;;;14.40;99.90;;;14.86;100.00;97743.50;10309371;28;20234;-79
2023/09/01 00:42:42;;;;;;;5.78;4.70;;;14.30;99.90;;;15.01;100.00;97748.34;10310000;28;20618;-79
2023/09/01 00:47:47;;;;;;;5.97;4.90;;;14.40;99.90;;;15.08;100.00;97749.47;10311780;28;20892;-79
2023/09/01 00:52:50;;;;;;;6.20;4.95;;;14.50;99.90;;;15.03;100.00;97756.13;10309076;28;20254;-79
2023/09/01 00:57:54;;;;;;;6.43;5.32;;;14.50;99.90;;;14.97;100.00;97750.75;10308494;28;20230;-80
2023/09/01 01:03:01;;;;;;;4.93;4.43;;;14.40;99.90;;;15.03;100.00;97738.13;10312764;28;20645;-79
2023/09/01 01:08:16;;;;;;;4.55;4.25;;;14.40;99.90;;;15.02;100.00;97749.22;10305748;28;20227;-79
2023/09/01 01:13:21;;;;;;;5.03;4.63;;;14.40;99.90;;;15.03;100.00;97733.84;10305838;28;20226;-79
2023/09/01 01:18:28;;;;;;;5.40;4.82;;;14.40;99.90;;;15.10;100.00;97738.38;10311745;28;20288;-79
2023/09/01 01:23:34;;;;;;;5.20;4.80;;;14.50;99.90;;;15.10;100.00;97735.81;10312337;28;20413;-79
2023/09/01 01:28:37;;;;;;;5.00;4.60;;;14.50;99.90;;;15.18;100.00;97733.53;10311515;28;20219;-79
2023/09/01 01:33:50;;;;;;;6.68;4.82;;;14.60;99.90;;;15.23;100.00;97737.16;10314295;28;20898;-80
2023/09/01 01:39:02;;;;;;;5.75;5.15;;;14.60;99.90;;;15.22;100.00;97732.84;10313125;28;20321;-79
2023/09/01 01:44:07;;;;;;;6.50;5.63;;;14.60;99.90;;;15.30;100.00;97740.81;10307585;28;20235;-79
2023/09/01 01:49:11;;;;;;;6.50;5.88;;;14.70;99.90;;;15.29;100.00;97732.22;10315247;28;20223;-79
2023/09/01 01:54:15;;;;;;;6.35;5.40;;;14.60;99.90;;;15.20;100.00;97743.91;10316634;28;20719;-81
2023/09/01 01:59:19;;;;;;;5.97;4.93;;;14.60;99.90;;;15.13;100.00;97768.53;10316121;28;20629;-80
2023/09/01 02:04:22;;;;;;;6.28;5.32;;;14.50;99.90;;;15.06;100.00;97767.41;10314022;28;20758;-78
2023/09/01 02:09:27;;;;;;;6.88;6.30;;;14.60;99.90;;;15.17;100.00;97765.25;10315415;28;20657;-78
2023/09/01 02:14:30;;;;;;;7.25;5.55;;;14.60;99.90;;;15.11;100.00;97754.72;10310573;28;20309;-78
2023/09/01 02:19:34;;;;;;;5.65;5.15;;;14.50;99.90;;;15.03;100.00;97769.00;10308222;28;20242;-80
2023/09/01 02:24:38;;;;;;;5.90;5.25;;;14.40;99.90;;;14.83;100.00;97757.94;10309367;28;20235;-79
2023/09/01 02:29:42;;;;;;;6.72;5.95;;;14.30;99.90;;;14.68;100.00;97757.34;10313145;28;20680;-80
2023/09/01 02:34:45;;;;;;;6.90;5.85;;;14.20;99.90;;;14.72;100.00;97765.25;10305904;28;20227;-80
2023/09/01 02:39:49;;;;;;;7.18;6.47;;;14.20;99.90;;;14.68;100.00;97758.25;10315646;28;20234;-80
2023/09/01 02:44:53;;;;;;;8.13;7.32;;;14.20;99.90;;;14.57;100.00;97744.06;10305554;28;20716;-78
2023/09/01 02:49:56;;;;;;;7.97;7.28;;;14.10;99.90;;;14.69;100.00;97741.09;10309182;28;20595;-79
2023/09/01 02:55:01;;;;;;;7.47;6.70;;;14.20;99.90;;;14.72;100.00;97760.09;10311281;28;20322;-79
2023/09/01 03:00:14;;;;;;;7.13;6.43;;;14.20;99.90;;;14.58;100.00;97756.09;10309948;28;20225;-79
2023/09/01 03:05:18;;;;;;;7.32;5.93;;;14.10;99.90;;;14.99;100.00;97756.81;10310132;28;20320;-79
2023/09/01 03:10:22;;;;;;;6.10;5.50;;;14.30;99.90;;;14.60;100.00;97760.50;10309496;28;20231;-79
2023/09/01 03:15:26;;;;;;;6.75;5.68;;;14.10;99.90;;;14.56;100.00;97758.59;10308122;28;20318;-79
2023/09/01 03:20:29;;;;;;;7.15;6.25;;;14.10;99.90;;;14.74;100.00;97767.91;10313990;28;20227;-79
2023/09/01 03:25:34;;;;;;;7.47;6.60;;;14.20;99.90;;;14.75;100.00;97767.94;10315465;28;20223;-79
2023/09/01 03:30:37;;;;;;;6.97;6.38;;;14.30;99.90;;;14.77;100.00;97763.72;10307378;28;20223;-79
2023/09/01 03:35:40;;;;;;;6.88;6.18;;;14.20;99.90;;;14.87;100.00;97752.97;10307569;28;20234;-80
2023/09/01 03:40:44;;;;;;;6.70;6.00;;;14.30;99.90;;;14.81;100.00;97757.88;10304726;28;20227;-80
2023/09/01 03:45:48;;;;;;;7.30;6.57;;;14.30;99.90;;;14.91;100.00;97760.78;10308656;28;20254;-79
2023/09/01 03:51:06;;;;;;;7.03;6.32;;;14.40;99.90;;;14.94;100.00;97748.94;10314969;28;20235;-79
2023/09/01 03:56:14;;;;;;;7.40;6.53;;;14.50;99.90;;;15.05;100.00;97763.09;10313086;28;20253;-79
2023/09/01 04:01:17;;;;;;;7.10;6.50;;;14.50;99.90;;;15.11;100.00;97765.03;10317784;28;20231;-79
2023/09/01 04:06:21;;;;;;;6.22;5.63;;;14.60;99.90;;;15.22;100.00;97768.88;10323872;28;20246;-78
2023/09/01 04:11:25;;;;;;;6.07;5.57;;;14.60;99.90;;;15.18;100.00;97769.56;10308176;28;20227;-81
2023/09/01 04:16:29;;;;;;;6.55;5.95;;;14.70;99.90;;;15.29;100.00;97772.56;10304354;28;20231;-79
2023/09/01 04:21:32;;;;;;;7.10;6.22;;;14.70;99.90;;;15.19;100.00;97763.59;10307152;28;21389;-80
2023/09/01 04:26:37;;;;;;;6.20;5.57;;;14.60;99.90;;;15.12;100.00;97768.47;10330766;28;20245;-83
2023/09/01 04:31:40;;;;;;;5.55;5.05;;;14.60;99.90;;;15.14;100.00;97775.44;10331917;28;20258;-82
2023/09/01 04:36:43;;;;;;;5.72;5.18;;;14.60;99.90;;;15.31;100.00;97769.22;10342349;28;20794;-82
2023/09/01 04:41:51;;;;;;;7.30;5.40;;;14.70;99.90;;;15.28;100.00;97769.13;10344039;28;20246;-83
2023/09/01 04:46:55;;;;;;;5.32;4.70;;;14.80;99.90;;;15.33;100.00;97769.25;10342222;28;20247;-82
2023/09/01 04:51:58;;;;;;;5.70;5.13;;;14.80;99.90;;;15.33;100.00;97772.72;10342986;28;20262;-81
2023/09/01 04:57:02;;;;;;;5.28;4.78;;;14.80;99.90;;;15.35;100.00;97779.63;10352575;28;20626;-81
2023/09/01 05:02:06;;;;;;;5.40;4.90;;;14.90;99.90;;;15.44;100.00;97777.38;10344472;28;20230;-81
2023/09/01 05:07:09;;;;;;;5.80;5.18;;;14.90;99.90;;;15.53;100.00;97775.16;10354751;28;20766;-82
2023/09/01 05:12:14;;;;;;;6.82;6.03;;;15.00;99.90;;;15.61;100.00;97780.59;10353161;28;20226;-81
2023/09/01 05:17:17;;;;;;;6.82;6.07;;;15.00;99.90;;;15.69;100.00;97780.06;10354418;28;20222;-81
2023/09/01 05:22:21;;;;;;;6.50;5.88;;;15.20;99.90;;;15.83;100.00;97779.69;10352453;28;20671;-81
2023/09/01 05:27:26;;;;;;;6.88;5.80;;;15.30;99.90;;;16.05;100.00;97792.47;10354610;28;20250;-81
2023/09/01 05:32:31;;;;;;;5.40;5.00;;;15.40;99.90;;;16.14;100.00;97787.66;10354730;28;20227;-82
2023/09/01 05:37:34;;;;;;;4.95;4.45;;;15.50;99.90;;;16.14;100.00;97790.22;10349653;28;20226;-82
2023/09/01 05:42:39;;;;;;;6.93;5.28;;;15.50;99.90;;;16.20;100.00;97794.72;10353600;28;20716;-82
2023/09/01 05:47:43;;;;;;;5.57;5.07;;;15.50;99.90;;;16.14;100.00;97797.97;10354703;28;20235;-81
2023/09/01 05:52:46;;;;;;;6.07;5.55;;;15.50;99.90;;;16.13;100.00;97803.06;10352552;28;20242;-82
2023/09/01 05:57:51;;;;;;;6.30;5.70;;;15.50;99.90;;;16.15;100.00;97804.88;10341961;28;20257;-82
2023/09/01 06:02:54;;;;;;;7.75;6.63;;;15.50;99.90;;;16.11;100.00;97810.75;10338546;28;20239;-81
2023/09/01 06:07:58;;;;;;;8.80;6.43;;;15.50;99.90;;;16.12;100.00;97815.09;10335540;28;20596;-83
2023/09/01 06:13:03;;;;;;;6.60;5.88;;;15.50;99.90;;;16.17;100.00;97823.84;10335689;28;20231;-83
2023/09/01 06:18:06;;;;;;;7.30;6.60;;;15.60;99.90;;;16.27;100.00;97819.00;10337898;28;20250;-82
2023/09/01 06:23:09;;;;;;;5.93;5.43;;;15.70;99.90;;;16.33;100.00;97826.94;10335977;28;20231;-84
2023/09/01 06:28:14;;;;;;;7.32;6.68;;;15.80;99.90;;;16.54;100.00;97835.44;10335492;28;20245;-81
2023/09/01 06:33:18;;;;;;;6.28;4.53;;;15.90;99.90;;;16.79;100.00;97841.41;10340190;28;20231;-84
2023/09/01 06:38:22;;;;;;;4.07;3.67;;;16.10;99.90;;;16.86;100.00;97845.94;10336822;28;20250;-83
2023/09/01 06:43:26;;;;;;;4.53;3.53;;;16.30;99.90;;;16.82;100.00;97846.66;10336832;28;20322;-81
2023/09/01 06:48:30;;;;;;;3.33;2.85;;;16.30;99.90;;;16.86;100.00;97849.41;10333612;28;20328;-80
2023/09/01 06:53:34;;;;;;;3.03;2.83;;;16.30;99.90;;;16.86;100.00;97858.84;10338847;28;20238;-83
2023/09/01 06:58:39;;;;;;;3.67;2.70;;;16.20;99.90;;;16.72;100.00;97860.09;10336646;28;20310;-84
2023/09/01 07:03:43;;;;;;;2.67;2.40;;;16.20;99.90;;;16.54;100.00;97865.47;10337048;28;20258;-83
2023/09/01 07:08:47;;;;;;;2.92;2.72;;;16.10;99.90;;;16.56;100.00;97864.72;10336387;28;20238;-85
2023/09/01 07:13:52;;;;;;;4.10;2.60;;;16.10;99.90;;;16.64;100.00;97868.44;10339080;28;20227;-84
2023/09/01 07:18:55;;;;;;;3.17;2.80;;;16.10;99.90;;;16.65;100.00;97877.94;10336122;28;20231;-84
2023/09/01 07:23:58;;;;;;;3.17;2.88;;;16.20;99.90;;;16.69;100.00;97884.09;10337673;28;20227;-84
2023/09/01 07:29:02;;;;;;;2.97;2.47;;;16.20;99.90;;;16.70;100.00;97890.13;10337142;28;20294;-83
2023/09/01 07:34:06;;;;;;;3.42;3.13;;;16.10;99.90;;;16.62;100.00;97880.41;10339950;28;20257;-85
2023/09/01 07:39:09;;;;;;;3.75;3.20;;;16.10;99.90;;;16.75;100.00;97876.53;10340320;28;20230;-84
2023/09/01 07:44:16;;;;;;;3.50;3.20;;;16.20;99.90;;;16.71;100.00;97891.88;10339575;28;20259;-84
2023/09/01 07:49:19;;;;;;;3.55;2.90;;;16.20;99.90;;;16.74;100.00;97885.13;10340290;28;20234;-85
2023/09/01 07:54:22;;;;;;;2.88;2.40;;;16.20;99.90;;;16.81;100.00;97893.97;10334626;28;20258;-85
2023/09/01 07:59:27;;;;;;;2.20;2.10;;;16.30;99.90;;;16.96;100.00;97894.47;10333576;28;20257;-83
2023/09/01 08:04:30;;;;;;;3.47;2.60;;;16.30;99.90;;;16.93;100.00;97898.66;10332140;28;20231;-83
2023/09/01 08:09:33;;;;;;;3.33;2.45;;;16.40;99.90;;;16.95;100.00;97890.13;10338633;28;20231;-83
2023/09/01 08:14:38;;;;;;;2.70;2.53;;;16.40;99.90;;;17.04;100.00;97894.72;10338299;28;20307;-83
2023/09/01 08:19:41;;;;;;;3.00;2.78;;;16.50;99.90;;;17.10;100.00;97916.44;10332742;28;20308;-84
2023/09/01 08:24:44;;;;;;;2.75;2.45;;;16.60;99.90;;;17.27;100.00;97913.53;10332611;28;20254;-83
2023/09/01 08:29:49;;;;;;;2.75;2.40;;;16.80;99.90;;;17.45;100.00;97914.09;10335939;28;20358;-84
2023/09/01 08:34:53;;;;;;;2.50;2.30;;;16.80;99.90;;;17.48;100.00;97910.72;10334290;28;20233;-85
2023/09/01 08:39:56;;;;;;;2.70;2.50;;;16.90;99.90;;;17.45;100.00;97913.22;10333773;28;20239;-83
2023/09/01 08:45:03;;;;;;;3.08;2.78;;;16.90;99.90;;;17.54;100.00;97913.50;10332009;28;20227;-83
2023/09/01 08:50:07;;;;;;;2.80;2.60;;;17.00;99.90;;;17.66;100.00;97913.88;10332431;28;20230;-86
2023/09/01 08:55:11;;;;;;;4.05;3.03;;;17.20;99.90;;;17.87;100.00;97918.84;10332044;28;20231;-83
2023/09/01 09:00:16;;;;;;;3.03;2.35;;;17.40;99.90;;;18.01;100.00;97916.66;10336904;28;20231;-83
2023/09/01 09:05:23;;;;;;;5.03;2.67;;;17.40;99.90;;;17.97;100.00;97925.13;10337349;28;20265;-82
2023/09/01 09:10:34;;;;;;;2.55;2.35;;;17.40;99.90;;;17.91;100.00;97925.88;10333482;28;20362;-83
2023/09/01 09:15:39;;;;;;;3.28;2.72;;;17.30;99.90;;;17.94;100.00;97920.78;10335716;28;20716;-82
2023/09/01 09:20:43;;;;;;;2.40;2.30;;;17.40;99.90;;;18.18;100.00;97919.72;10333058;28;20249;-82
2023/09/01 09:25:46;;;;;;;3.38;2.42;;;17.60;99.90;;;18.21;100.00;97918.09;10338475;28;21232;-82
2023/09/01 09:30:51;;;;;;;2.65;2.40;;;17.70;99.90;;;18.27;100.00;97919.97;10341154;28;20223;-84
2023/09/01 09:35:55;;;;;;;3.00;2.70;;;17.70;99.90;;;18.43;100.00;97926.47;10336953;28;20226;-84
2023/09/01 09:40:58;;;;;;;3.05;2.70;;;17.90;99.90;;;18.43;100.00;97916.97;10339806;28;20231;-82
2023/09/01 09:46:04;;;;;;;2.65;2.45;;;18.00;99.90;;;18.67;100.00;97915.88;10341970;28;20318;-83
2023/09/01 09:51:08;;;;;;;2.72;2.47;;;18.10;99.90;;;18.90;100.00;97919.94;10341099;28;20227;-81
2023/09/01 09:56:22;;;;;;;4.20;2.35;;;18.50;99.90;;;19.11;100.00;97918.72;10338802;28;20215;-83
2023/09/01 10:01:31;;;;;;;2.58;2.30;;;18.70;99.90;;;19.29;100.00;97920.91;10338969;28;20245;-84
2023/09/01 10:06:36;;;;;;;3.13;2.20;;;18.80;99.90;;;19.49;100.00;97914.47;10334519;28;20250;-85
2023/09/01 10:11:41;;;;;;;2.30;2.10;;;19.10;99.90;;;19.72;100.00;97917.59;10334003;28;20251;-82
2023/09/01 10:16:46;;;;;;;2.47;2.28;;;19.30;99.90;;;19.82;100.00;97922.97;10333904;28;20234;-82
2023/09/01 10:21:50;;;;;;;2.60;2.00;;;19.30;99.90;;;20.12;100.00;97915.84;10337291;28;20317;-84
2023/09/01 10:27:07;;;;;;;2.35;2.15;;;19.60;99.90;;;20.14;100.00;97914.13;10333869;28;20231;-80
2023/09/01 10:32:19;;;;;;;2.97;2.67;;;19.70;99.90;;;20.47;100.00;97913.06;10340110;28;21434;-82
2023/09/01 10:37:27;;;;;;;3.05;2.03;;;19.90;99.90;;;20.47;100.00;97913.06;10334676;28;20899;-83
2023/09/01 10:42:41;;;;;;;2.22;2.13;;;19.90;99.90;;;20.40;100.00;97911.16;10334497;28;20922;-84
2023/09/01 10:47:46;;;;;;;2.50;2.30;;;20.00;99.90;;;20.45;100.00;97896.56;10336582;28;20231;-80
2023/09/01 10:53:32;;;;;;;3.40;2.47;;;20.00;99.90;;;20.80;100.00;97898.94;10338675;28;20227;-83
2023/09/01 10:58:49;;;;;;;3.45;2.50;;;20.30;99.90;;;21.29;100.00;97904.94;10335653;28;20233;-82
2023/09/01 11:03:54;;;;;;;3.30;2.53;;;20.90;99.90;;;21.39;100.00;97899.06;10336512;28;20258;-82
2023/09/01 11:08:59;;;;;;;2.95;2.40;;;21.00;99.90;;;21.39;100.00;97888.66;10334996;28;20227;-84
2023/09/01 11:14:06;;;;;;;3.83;2.67;;;21.00;99.90;;;21.63;100.00;97892.47;10333655;28;20593;-82
2023/09/01 11:19:10;;;;;;;1.90;1.80;;;21.30;99.90;;;21.56;100.00;97886.31;10328544;28;20717;-82
2023/09/01 11:24:15;;;;;;;2.45;1.90;;;21.20;99.90;;;21.71;100.00;97885.63;10337345;28;20235;-81
2023/09/01 11:29:18;;;;;;;2.67;1.98;;;21.40;99.90;;;21.85;100.00;97889.28;10337424;28;20254;-82
2023/09/01 11:34:24;;;;;;;2.03;1.88;;;21.60;99.90;;;21.94;100.00;97873.78;10334823;28;20227;-83
2023/09/01 11:39:27;;;;;;;1.92;1.83;;;21.60;99.90;;;21.87;100.00;97876.31;10331043;28;20231;-82
2023/09/01 11:44:32;;;;;;;2.20;2.10;;;21.60;99.90;;;21.93;97.78;97879.00;10329620;28;20229;-82
2023/09/01 11:49:36;;;;;;;1.85;1.50;;;21.60;99.90;;;21.89;98.94;97867.69;10326582;28;20584;-82
2023/09/01 11:54:43;;;;;;;1.88;1.77;;;21.60;99.90;;;22.09;94.66;97867.00;10329982;28;20227;-84
2023/09/01 11:59:48;;;;;;;1.70;1.60;;;21.60;99.90;;;22.14;90.87;97867.94;10327766;28;20234;-82
2023/09/01 12:04:53;;;;;;;1.85;1.67;;;21.80;99.90;;;22.13;90.27;97858.41;10332782;28;20222;-81
2023/09/01 12:09:56;;;;;;;2.00;1.80;;;21.80;99.90;;;22.14;89.17;97860.13;10333022;28;20329;-81
2023/09/01 12:15:04;;;;;;;1.92;1.70;;;21.90;99.90;;;22.13;87.24;97848.84;10330865;28;20223;-81
2023/09/01 12:20:09;;;;;;;2.03;1.83;;;21.80;99.90;;;22.37;87.77;97857.81;10331915;28;20259;-80
2023/09/01 12:25:14;;;;;;;2.70;1.90;;;22.10;99.90;;;22.38;85.84;97850.03;10332687;28;20227;-79
2023/09/01 12:30:17;;;;;;;1.88;1.55;;;22.20;99.90;;;22.32;84.23;97841.25;10330652;28;20227;-83
2023/09/01 12:35:22;;;;;;;1.98;1.73;;;22.10;99.90;;;22.24;83.59;97847.28;10331224;28;20239;-80
2023/09/01 12:40:25;;;;;;;2.08;1.70;;;21.90;99.90;;;22.20;85.86;97848.09;10334896;28;20257;-81
2023/09/01 12:45:29;;;;;;;1.83;1.70;;;21.80;99.90;;;22.28;85.89;97848.19;10333808;28;20227;-80
2023/09/01 12:50:34;;;;;;;1.92;1.67;;;22.00;99.90;;;22.45;85.29;97845.75;10330538;28;20242;-81
2023/09/01 12:55:37;;;;;;;1.73;1.63;;;22.10;99.90;;;22.54;84.09;97839.75;10334066;28;20273;-79
2023/09/01 13:00:40;;;;;;;2.55;2.10;;;22.20;99.90;;;22.62;82.96;97843.31;10333029;28;20233;-81
2023/09/01 13:05:47;;;;;;;2.15;1.95;;;22.20;99.90;;;22.66;82.07;97832.03;10332621;28;20838;-82
2023/09/01 13:10:50;;;;;;;2.20;2.00;;;22.30;99.90;;;22.59;83.55;97832.84;10335908;28;20235;-83
2023/09/01 13:15:54;;;;;;;2.53;1.95;;;22.10;99.90;;;22.91;78.64;97825.28;10340613;28;20226;-80
2023/09/01 13:20:58;;;;;;;2.28;1.90;;;22.60;99.90;;;23.05;78.36;97823.69;10341022;28;20265;-82
2023/09/01 13:26:01;;;;;;;1.80;1.70;;;22.70;99.90;;;23.02;78.44;97818.47;10342059;28;20263;-82
2023/09/01 13:31:05;;;;;;;2.10;1.90;;;22.60;99.90;;;23.00;76.55;97824.53;10342842;28;20317;-81
2023/09/01 13:36:11;;;;;;;1.67;1.50;;;22.50;99.90;;;23.16;74.70;97814.22;10340688;28;20375;-83
2023/09/01 13:41:14;;;;;;;2.00;1.70;;;22.70;99.90;;;23.21;77.02;97808.13;10343098;28;20227;-82
2023/09/01 13:46:22;;;;;;;1.98;1.70;;;22.60;99.90;;;23.14;80.46;97799.41;10340949;28;20241;-83
2023/09/01 13:51:29;;;;;;;2.33;1.70;;;22.60;99.90;;;23.37;78.44;97808.22;10336897;28;20795;-80
2023/09/01 13:56:33;;;;;;;2.22;1.85;;;22.90;99.90;;;23.66;77.19;97807.50;10342375;28;20215;-80
2023/09/01 14:01:37;;;;;;;1.60;1.50;;;23.10;99.90;;;23.88;72.39;97803.28;10340802;28;20265;-81
2023/09/01 14:06:42;;;;;;;2.17;1.98;;;23.10;99.90;;;24.01;69.30;97797.25;10338578;28;20241;-80
2023/09/01 14:11:45;;;;;;;1.77;1.40;;;23.50;99.90;;;24.32;67.30;97804.25;10334970;28;20234;-79
2023/09/01 14:16:49;;;;;;;1.75;1.50;;;23.80;99.90;;;24.43;65.17;97803.44;10337720;28;20325;-78
2023/09/01 14:21:53;;;;;;;1.50;1.40;;;24.00;99.90;;;24.45;64.09;97806.06;10335390;28;20243;-78
2023/09/01 14:26:57;;;;;;;1.73;1.63;;;24.00;99.90;;;24.26;62.23;97805.97;10335086;28;20236;-79
2023/09/01 14:32:00;;;;;;;1.90;1.67;;;23.70;99.90;;;24.13;61.80;97804.22;10337125;28;20231;-79
2023/09/01 14:37:05;;;;;;;1.80;1.70;;;23.70;99.90;;;24.25;61.91;97809.47;10335117;28;20262;-78
2023/09/01 14:42:08;;;;;;;1.70;1.60;;;23.70;99.90;;;24.33;60.88;97800.78;10334362;28;20264;-79
2023/09/01 14:47:12;;;;;;;1.60;1.45;;;23.80;99.90;;;24.25;63.48;97809.47;10339543;28;20230;-79
2023/09/01 14:52:16;;;;;;;1.70;1.60;;;23.70;99.90;;;24.33;61.95;97806.88;10337621;28;20944;-79
2023/09/01 14:57:19;;;;;;;1.70;1.48;;;23.60;99.90;;;24.03;62.59;97807.66;10335092;28;20233;-78
2023/09/01 15:02:23;;;;;;;2.47;1.80;;;23.40;99.90;;;23.92;63.37;97809.38;10335906;28;20241;-78
2023/09/01 15:07:27;;;;;;;3.03;1.75;;;23.20;99.90;;;23.79;66.53;97811.94;10335970;28;20233;-80
2023/09/01 15:12:31;;;;;;;1.67;1.52;;;23.10;99.90;;;23.84;64.00;97817.19;10336712;28;20226;-79
2023/09/01 15:17:34;;;;;;;1.60;1.50;;;23.10;99.90;;;23.93;64.33;97811.13;10326019;28;20242;-79
2023/09/01 15:22:39;;;;;;;1.85;1.65;;;23.20;99.90;;;23.93;63.98;97813.75;10339876;28;20237;-79
2023/09/01 15:27:42;;;;;;;1.85;1.58;;;23.20;99.90;;;23.88;64.97;97815.47;10336693;28;20389;-78
2023/09/01 15:32:45;;;;;;;1.70;1.55;;;23.10;99.90;;;23.75;63.74;97801.47;10334306;28;20265;-79
2023/09/01 15:37:50;;;;;;;2.22;1.75;;;23.10;99.90;;;23.72;64.49;97818.03;10324195;28;20239;-80
2023/09/01 15:42:56;;;;;;;1.98;1.77;;;22.90;99.90;;;23.68;66.96;97808.38;10331414;28;20282;-79
2023/09/01 15:47:59;;;;;;;1.80;1.70;;;22.90;99.90;;;23.67;66.21;97814.50;10315984;28;20258;-78
2023/09/01 15:53:04;;;;;;;1.60;1.50;;;23.00;99.90;;;23.55;66.84;97822.25;10317681;28;20672;-79
2023/09/01 15:58:07;;;;;;;2.17;1.33;;;22.80;99.90;;;23.27;67.78;97818.63;10316855;28;20872;-78
2023/09/01 16:03:10;;;;;;;1.83;1.50;;;22.50;99.90;;;23.09;70.11;97824.56;10321566;28;20234;-79
2023/09/01 16:08:33;;;;;;;1.88;1.52;;;22.30;99.90;;;23.07;70.80;97826.31;10327054;28;20225;-78
2023/09/01 16:13:37;;;;;;;1.90;1.70;;;22.30;99.90;;;23.14;71.26;97822.88;10321803;28;20234;-80
2023/09/01 16:18:40;;;;;;;1.70;1.60;;;22.40;99.90;;;23.13;72.03;97823.75;10313843;28;20231;-77
2023/09/01 16:23:45;;;;;;;1.50;1.40;;;22.30;99.90;;;23.16;71.74;97821.16;10321929;28;20229;-80
2023/09/01 16:28:50;;;;;;;1.70;1.60;;;22.40;99.90;;;23.03;73.37;97824.53;10328379;28;20239;-79
2023/09/01 16:33:53;;;;;;;2.28;1.85;;;22.20;99.90;;;22.85;72.43;97820.91;10313267;28;20225;-79
2023/09/01 16:38:58;;;;;;;2.13;1.80;;;22.10;99.90;;;22.81;73.27;97823.50;10323483;28;20258;-79
2023/09/01 16:44:01;;;;;;;1.85;1.40;;;22.00;99.90;;;22.58;75.96;97831.97;10322006;28;20227;-79
2023/09/01 16:49:07;;;;;;;2.15;1.65;;;21.80;99.90;;;22.34;77.42;97836.94;10332268;28;20226;-80
2023/09/01 16:54:12;;;;;;;2.03;1.85;;;21.60;99.90;;;22.23;78.44;97831.63;10343215;28;20702;-79
2023/09/01 16:59:15;;;;;;;1.70;1.60;;;21.40;99.90;;;22.11;79.64;97836.66;10337179;28;20235;-79
2023/09/01 17:04:18;;;;;;;1.98;1.83;;;21.30;99.90;;;21.99;80.30;97843.50;10324291;28;20233;-77
2023/09/01 17:09:23;;;;;;;1.98;1.83;;;21.20;99.90;;;21.87;82.20;97853.75;10316619;28;20308;-77
2023/09/01 17:14:26;;;;;;;3.55;2.03;;;21.10;99.90;;;21.81;83.75;97864.09;10324682;28;20226;-77
2023/09/01 17:19:30;;;;;;;1.95;1.75;;;21.00;99.90;;;21.72;84.88;97861.34;10330925;28;20225;-78
2023/09/01 17:24:34;;;;;;;2.00;1.85;;;20.90;99.90;;;21.58;86.29;97863.81;10345887;28;20670;-79
2023/09/01 17:29:37;;;;;;;2.05;1.95;;;20.80;99.90;;;21.46;88.40;97864.50;10335291;28;20357;-78
2023/09/01 17:34:40;;;;;;;3.78;2.00;;;20.70;99.90;;;21.24;91.02;97870.22;10335804;28;20353;-78
2023/09/01 17:39:45;;;;;;;2.30;2.10;;;20.40;99.90;;;21.01;93.58;97862.94;10347314;28;20237;-78
2023/09/01 17:44:48;;;;;;;3.53;3.00;;;20.20;99.90;;;20.97;94.46;97862.84;10339736;28;20227;-78
2023/09/01 17:49:52;;;;;;;3.70;2.55;;;20.10;99.90;;;20.81;96.30;97861.75;10339803;28;20238;-79
2023/09/01 17:54:56;;;;;;;3.10;2.80;;;19.90;99.90;;;20.60;97.48;97863.13;10342799;28;20266;-79
2023/09/01 17:59:59;;;;;;;2.97;2.72;;;19.80;99.90;;;20.45;98.45;97871.47;10345249;28;20721;-78
2023/09/01 18:05:04;;;;;;;5.40;2.70;;;19.60;99.90;;;20.25;99.96;97868.50;10334741;28;20239;-78
2023/09/01 18:10:10;;;;;;;3.45;2.67;;;19.40;99.90;;;20.05;100.00;97867.22;10333215;28;21275;-80
2023/09/01 18:15:14;;;;;;;4.43;2.63;;;19.20;99.90;;;19.92;100.00;97871.31;10335496;28;21041;-79
2023/09/01 18:20:19;;;;;;;3.45;2.40;;;19.00;99.90;;;19.77;100.00;97864.09;10331956;28;20720;-78
2023/09/01 18:25:26;;;;;;;2.05;1.88;;;19.00;99.90;;;19.64;100.00;97880.19;10332780;28;20313;-78
2023/09/01 18:30:30;;;;;;;2.70;2.50;;;18.80;99.90;;;19.55;100.00;97890.38;10335757;28;20309;-79
2023/09/01 18:35:33;;;;;;;3.30;2.45;;;18.70;99.90;;;19.42;100.00;97901.31;10340821;28;22623;-78
2023/09/01 18:40:38;;;;;;;5.20;4.07;;;18.60;99.90;;;19.28;100.00;97912.22;10343973;28;20246;-80
2023/09/01 18:45:45;;;;;;;6.40;4.95;;;18.40;99.90;;;19.25;100.00;97919.94;10342209;28;20291;-78
2023/09/01 18:50:50;;;;;;;4.93;3.90;;;18.30;99.90;;;19.05;100.00;97928.94;10339869;28;20912;-78
2023/09/01 18:55:55;;;;;;;4.35;3.90;;;18.20;99.90;;;18.94;100.00;97935.56;10339586;28;20230;-79
2023/09/01 19:00:59;;;;;;;4.13;3.67;;;18.10;99.90;;;18.86;100.00;97944.03;10340135;28;20306;-78
2023/09/01 19:06:04;;;;;;;4.82;4.00;;;18.00;99.90;;;18.72;100.00;97945.34;10332777;28;20227;-79
2023/09/01 19:11:10;;;;;;;4.45;3.80;;;17.90;99.90;;;18.61;100.00;97959.72;10336581;28;20330;-80
2023/09/01 19:16:18;;;;;;;3.15;2.88;;;17.80;99.90;;;18.46;100.00;97960.19;10339248;28;20243;-80
2023/09/01 19:21:22;;;;;;;2.97;2.30;;;17.70;99.90;;;18.38;100.00;97957.38;10341974;28;20246;-80
2023/09/01 19:26:29;;;;;;;2.67;2.47;;;17.60;99.90;;;18.34;100.00;97972.75;10337017;28;20231;-79
2023/09/01 19:31:32;;;;;;;3.08;2.40;;;17.60;99.90;;;18.27;100.00;97979.50;10341441;28;20261;-78
2023/09/01 19:36:36;;;;;;;3.00;2.80;;;17.40;99.90;;;18.17;100.00;97986.13;10337602;28;20223;-78
2023/09/01 19:41:40;;;;;;;3.50;2.90;;;17.40;99.90;;;18.05;100.00;97990.03;10343966;28;20322;-78
2023/09/01 19:46:43;;;;;;;2.60;2.30;;;17.30;99.90;;;17.90;100.00;97996.50;10340536;28;20223;-79
2023/09/01 19:51:47;;;;;;;3.08;2.20;;;17.10;99.90;;;17.74;100.00;98004.59;10342163;28;20235;-78
2023/09/01 19:56:54;;;;;;;2.28;2.08;;;17.00;99.90;;;17.70;100.00;97997.56;10338562;28;22251;-78
2023/09/01 20:01:57;;;;;;;2.42;2.10;;;16.90;99.90;;;17.58;100.00;98007.53;10339331;28;20227;-78
2023/09/01 20:07:02;;;;;;;3.83;3.15;;;16.80;99.90;;;17.53;100.00;98010.84;10337227;28;20226;-78
2023/09/01 20:12:07;;;;;;;4.00;2.80;;;16.80;99.90;;;17.44;100.00;98014.84;10338437;28;20728;-79
2023/09/01 20:17:12;;;;;;;2.72;2.53;;;16.80;99.90;;;17.52;100.00;98009.09;10340835;28;20242;-77
2023/09/01 20:22:18;;;;;;;2.92;2.63;;;16.80;99.90;;;17.49;100.00;98014.16;10337478;28;20318;-78
2023/09/01 20:27:23;;;;;;;3.35;3.05;;;16.80;99.90;;;17.43;100.00;98018.25;10339073;28;20230;-78
2023/09/01 20:32:30;;;;;;;2.67;2.47;;;16.70;99.90;;;17.37;100.00;98016.34;10337426;28;20233;-78
2023/09/01 20:37:33;;;;;;;3.60;2.78;;;16.60;99.90;;;17.34;100.00;98018.84;10332165;28;20298;-78
2023/09/01 20:42:38;;;;;;;3.55;2.72;;;16.60;99.90;;;17.30;100.00;98032.47;10333596;28;20315;-77
2023/09/01 20:47:41;;;;;;;2.75;2.40;;;16.50;99.90;;;17.30;100.00;98032.47;10340179;28;20230;-78
2023/09/01 20:52:47;;;;;;;2.88;2.58;;;16.50;99.90;;;17.19;100.00;98033.81;10335636;28;20250;-78
2023/09/01 20:57:52;;;;;;;2.55;2.35;;;16.40;99.90;;;17.04;100.00;98039.34;10335334;28;20662;-77